createdAt,value
2023-05-19T00:00:30.945Z,7.91
2023-05-19T00:05:33.559Z,8.00
2023-05-19T00:10:35.523Z,8.03
2023-05-19T00:15:37.437Z,8.02
2023-05-19T00:20:39.031Z,8.16
2023-05-19T00:25:40.700Z,8.31
2023-05-19T00:30:42.253Z,8.54
2023-05-19T00:35:43.967Z,8.70
2023-05-19T00:40:45.908Z,8.79
2023-05-19T00:45:47.535Z,8.73
2023-05-19T00:50:50.771Z,8.69
2023-05-19T00:55:52.312Z,8.34
2023-05-19T01:00:56.102Z,8.03
2023-05-19T01:06:01.649Z,7.66
2023-05-19T01:11:07.292Z,7.39
2023-05-19T01:16:35.251Z,7.20
2023-05-19T01:22:01.011Z,7.03
2023-05-19T01:27:22.103Z,6.78
2023-05-19T01:32:24.085Z,6.60
2023-05-19T01:37:28.792Z,6.44
2023-05-19T01:42:37.249Z,6.34
2023-05-19T01:47:44.367Z,6.28
2023-05-19T01:52:46.006Z,6.18
2023-05-19T01:58:02.580Z,6.14
2023-05-19T02:03:37.748Z,6.15
2023-05-19T02:08:55.282Z,6.11
2023-05-19T02:14:01.202Z,6.11
2023-05-19T02:19:02.845Z,6.04
2023-05-19T02:24:04.454Z,6.05
2023-05-19T02:29:06.055Z,5.92
2023-05-19T02:34:08.691Z,5.87
2023-05-19T02:39:12.229Z,5.88
2023-05-19T02:44:13.940Z,5.84
2023-05-19T02:49:15.675Z,5.72
2023-05-19T02:54:17.265Z,5.84
2023-05-19T02:59:18.852Z,5.86
2023-05-19T03:04:20.351Z,5.82
2023-05-19T03:09:21.899Z,5.78
2023-05-19T03:14:24.524Z,5.79
2023-05-19T03:19:29.154Z,5.79
2023-05-19T03:24:30.795Z,5.79
2023-05-19T03:29:32.419Z,5.80
2023-05-19T03:34:35.432Z,5.79
2023-05-19T03:39:37.724Z,5.63
2023-05-19T03:44:39.548Z,5.49
2023-05-19T03:49:41.161Z,5.51
2023-05-19T03:55:21.445Z,5.62
2023-05-19T04:00:23.776Z,5.73
2023-05-19T04:05:25.986Z,5.77
2023-05-19T04:10:29.079Z,5.81
2023-05-19T04:15:30.787Z,5.92
2023-05-19T04:20:32.489Z,6.10
2023-05-19T04:25:36.072Z,6.33
2023-05-19T04:30:38.676Z,6.32
2023-05-19T04:35:40.590Z,6.46
2023-05-19T04:40:44.369Z,6.62
2023-05-19T04:45:47.329Z,6.74
2023-05-19T04:50:51.814Z,6.87
2023-05-19T04:55:53.900Z,7.11
2023-05-19T05:00:56.009Z,7.37
2023-05-19T05:05:58.653Z,7.64
2023-05-19T05:11:00.718Z,8.00
2023-05-19T05:16:04.713Z,8.28
2023-05-19T05:21:07.573Z,8.55
2023-05-19T05:26:18.101Z,8.64
2023-05-19T05:31:21.666Z,8.72
2023-05-19T05:36:23.432Z,8.72
2023-05-19T05:41:25.134Z,8.74
2023-05-19T05:46:28.025Z,8.69
2023-05-19T05:51:31.196Z,8.83
2023-05-19T05:56:33.894Z,9.08
2023-05-19T06:01:36.698Z,9.34
2023-05-19T06:06:41.085Z,9.53
2023-05-19T06:11:43.594Z,9.75
2023-05-19T06:16:48.002Z,10.02
2023-05-19T06:21:51.947Z,10.22
2023-05-19T06:26:53.695Z,10.51
2023-05-19T06:31:55.753Z,10.77
2023-05-19T06:36:57.561Z,10.99
2023-05-19T06:41:59.902Z,11.25
2023-05-19T06:47:21.379Z,11.47
2023-05-19T06:52:23.736Z,11.55
2023-05-19T06:57:25.783Z,11.63
2023-05-19T07:02:30.617Z,11.85
2023-05-19T07:07:32.470Z,12.06
2023-05-19T07:12:37.556Z,12.19
2023-05-19T07:17:41.352Z,12.20
2023-05-19T07:22:43.463Z,12.39
2023-05-19T07:27:45.876Z,12.63
2023-05-19T07:32:47.454Z,12.88
2023-05-19T07:37:49.665Z,13.13
2023-05-19T07:42:51.321Z,13.29
2023-05-19T07:47:53.970Z,13.35
2023-05-19T07:52:56.138Z,13.61
2023-05-19T07:57:57.792Z,13.73
2023-05-19T08:03:00.084Z,13.90
2023-05-19T08:08:03.000Z,14.01
2023-05-19T08:13:05.197Z,14.18
2023-05-19T08:18:06.885Z,14.53
2023-05-19T08:23:08.426Z,14.84
2023-05-19T08:28:10.274Z,15.25
2023-05-19T08:33:12.014Z,15.33
2023-05-19T08:38:13.660Z,15.39
2023-05-19T08:43:15.472Z,15.26
2023-05-19T08:48:18.551Z,15.12
2023-05-19T08:53:33.025Z,15.48
2023-05-19T08:58:35.521Z,15.52
2023-05-19T09:03:41.080Z,15.83
2023-05-19T09:08:44.174Z,15.94
2023-05-19T09:13:46.113Z,16.26
2023-05-19T09:18:56.224Z,16.24
2023-05-19T09:23:59.305Z,16.24
2023-05-19T09:29:01.073Z,16.35
2023-05-19T09:34:02.709Z,16.56
2023-05-19T09:39:13.118Z,16.98
2023-05-19T09:44:21.027Z,17.20
2023-05-19T09:49:31.161Z,17.08
2023-05-19T09:54:34.060Z,17.35
2023-05-19T09:59:39.090Z,17.49
2023-05-19T10:04:42.227Z,17.54
2023-05-19T10:09:44.865Z,18.31
2023-05-19T10:14:47.788Z,18.35
2023-05-19T10:19:50.782Z,17.72
2023-05-19T10:24:52.321Z,17.78
2023-05-19T10:29:56.580Z,17.83
2023-05-19T10:35:23.429Z,18.48
2023-05-19T10:40:33.188Z,18.51
2023-05-19T10:45:40.606Z,18.44
2023-05-19T10:50:45.769Z,18.05
2023-05-19T10:55:55.909Z,17.83
2023-05-19T11:01:01.515Z,18.50
2023-05-19T11:06:24.841Z,18.95
2023-05-19T11:11:27.197Z,19.01
2023-05-19T11:16:29.998Z,18.96
2023-05-19T11:22:22.836Z,18.85
2023-05-19T11:27:28.822Z,19.43
2023-05-19T11:32:33.674Z,19.48
2023-05-19T11:37:36.002Z,19.14
2023-05-19T11:42:37.681Z,18.95
2023-05-19T11:47:56.503Z,19.01
2023-05-19T11:53:01.920Z,18.75
2023-05-19T11:58:05.820Z,18.72
2023-05-19T12:03:09.119Z,18.72
2023-05-19T12:08:11.921Z,18.58
2023-05-19T12:13:14.646Z,18.25
2023-05-19T12:18:16.210Z,17.93
2023-05-19T12:23:18.021Z,17.77
2023-05-19T12:28:20.096Z,17.48
2023-05-19T12:33:22.836Z,17.28
2023-05-19T12:38:24.386Z,17.30
2023-05-19T12:43:25.948Z,17.32
2023-05-19T12:48:28.576Z,17.17
2023-05-19T12:53:30.171Z,16.83
2023-05-19T12:58:34.353Z,16.74
2023-05-19T13:03:43.644Z,17.15
2023-05-19T13:08:47.272Z,17.30
2023-05-19T13:13:48.886Z,17.36
2023-05-19T13:18:51.530Z,17.53
2023-05-19T13:23:53.403Z,17.55
2023-05-19T13:28:57.300Z,17.77
2023-05-19T13:33:58.868Z,17.92
2023-05-19T13:39:01.246Z,17.89
2023-05-19T13:44:02.796Z,17.97
2023-05-19T13:49:04.349Z,18.14
2023-05-19T13:54:05.878Z,18.06
2023-05-19T13:59:07.788Z,17.92
2023-05-19T14:04:10.643Z,18.03
2023-05-19T14:09:13.241Z,18.32
2023-05-19T14:14:14.881Z,18.43
2023-05-19T14:19:16.498Z,18.72
2023-05-19T14:24:18.294Z,18.73
2023-05-19T14:29:20.173Z,18.87
2023-05-19T14:34:21.813Z,18.73
2023-05-19T14:39:23.429Z,18.55
2023-05-19T14:44:29.819Z,17.93
2023-05-19T14:49:31.388Z,17.57
2023-05-19T14:54:33.850Z,17.67
2023-05-19T14:59:38.854Z,17.74
2023-05-19T15:04:40.528Z,18.05
2023-05-19T15:09:42.123Z,18.47
2023-05-19T15:14:43.799Z,18.37
2023-05-19T15:19:45.420Z,18.45
2023-05-19T15:24:47.064Z,18.38
2023-05-19T15:29:48.635Z,18.42
2023-05-19T15:34:50.259Z,18.43
2023-05-19T15:39:51.911Z,18.10
2023-05-19T15:44:53.528Z,17.80
2023-05-19T15:49:55.114Z,17.57
2023-05-19T15:54:59.116Z,17.38
2023-05-19T16:00:01.018Z,17.39
2023-05-19T16:05:02.631Z,17.24
2023-05-19T16:10:04.523Z,17.37
2023-05-19T16:15:06.612Z,17.61
2023-05-19T16:20:08.791Z,17.60
2023-05-19T16:25:10.709Z,17.57
2023-05-19T16:30:12.867Z,17.53
2023-05-19T16:35:14.591Z,17.48
2023-05-19T16:40:16.219Z,17.74
2023-05-19T16:45:17.870Z,17.81
2023-05-19T16:50:19.442Z,17.84
2023-05-19T16:55:22.615Z,17.63
2023-05-19T17:00:24.281Z,17.48
2023-05-19T17:05:27.221Z,17.34
2023-05-19T17:10:28.785Z,17.15
2023-05-19T17:15:30.415Z,16.91
2023-05-19T17:20:32.157Z,16.69
2023-05-19T17:25:34.667Z,16.54
2023-05-19T17:30:36.570Z,16.43
2023-05-19T17:35:38.464Z,16.30
2023-05-19T17:40:41.961Z,16.15
2023-05-19T17:45:43.784Z,16.10
2023-05-19T17:50:49.341Z,16.02
2023-05-19T17:55:52.963Z,15.89
2023-05-19T18:00:55.362Z,15.83
2023-05-19T18:05:57.007Z,15.77
2023-05-19T18:10:58.840Z,15.69
2023-05-19T18:16:00.489Z,15.66
2023-05-19T18:21:02.055Z,15.67
2023-05-19T18:26:03.756Z,15.67
2023-05-19T18:31:06.326Z,15.65
2023-05-19T18:36:08.477Z,15.54
2023-05-19T18:41:10.491Z,15.26
2023-05-19T18:46:13.418Z,15.12
2023-05-19T18:51:15.809Z,15.03
2023-05-19T18:56:28.216Z,14.77
2023-05-19T19:01:29.902Z,14.63
2023-05-19T19:06:31.830Z,14.57
2023-05-19T19:11:33.454Z,14.26
2023-05-19T19:16:35.120Z,13.84
2023-05-19T19:21:36.822Z,13.66
2023-05-19T19:26:38.549Z,13.43
2023-05-19T19:31:40.169Z,13.04
2023-05-19T19:36:44.875Z,12.80
2023-05-19T19:41:46.479Z,12.69
2023-05-19T19:46:48.396Z,12.56
2023-05-19T19:51:50.106Z,12.47
2023-05-19T19:56:51.742Z,12.52
2023-05-19T20:01:53.515Z,12.55
2023-05-19T20:06:55.077Z,12.57
2023-05-19T20:11:56.632Z,12.56
2023-05-19T20:16:58.205Z,12.47
2023-05-19T20:22:02.645Z,12.38
2023-05-19T20:27:04.304Z,12.36
2023-05-19T20:32:06.244Z,12.34
2023-05-19T20:37:07.916Z,12.22
2023-05-19T20:42:09.739Z,12.15
2023-05-19T20:47:11.540Z,12.10
2023-05-19T20:52:13.116Z,11.92
2023-05-19T20:57:14.753Z,11.94
2023-05-19T21:02:16.327Z,11.95
2023-05-19T21:07:17.979Z,11.73
2023-05-19T21:12:23.786Z,11.69
2023-05-19T21:17:25.447Z,11.74
2023-05-19T21:22:27.748Z,11.73
2023-05-19T21:27:29.468Z,11.80
2023-05-19T21:32:31.179Z,11.83
2023-05-19T21:37:32.725Z,11.79
2023-05-19T21:42:35.285Z,11.77
2023-05-19T21:47:36.882Z,11.85
2023-05-19T21:52:38.621Z,11.88
2023-05-19T21:57:40.497Z,11.87
2023-05-19T22:02:42.232Z,11.87
2023-05-19T22:07:43.961Z,11.74
2023-05-19T22:12:45.521Z,11.73
2023-05-19T22:17:47.194Z,11.66
2023-05-19T22:22:48.739Z,11.73
2023-05-19T22:27:50.460Z,11.67
2023-05-19T22:32:52.120Z,11.67
2023-05-19T22:37:53.689Z,11.63
2023-05-19T22:42:55.209Z,11.55
2023-05-19T22:47:59.256Z,11.51
2023-05-19T22:53:00.848Z,11.44
2023-05-19T22:58:02.502Z,11.38
2023-05-19T23:03:04.155Z,11.22
2023-05-19T23:08:05.991Z,11.19
2023-05-19T23:13:09.501Z,11.15
2023-05-19T23:18:11.589Z,11.04
2023-05-19T23:23:13.344Z,11.09
2023-05-19T23:28:14.913Z,10.95
2023-05-19T23:33:16.457Z,10.89
2023-05-19T23:38:18.018Z,10.91
2023-05-19T23:43:19.544Z,10.82
2023-05-19T23:48:21.160Z,10.74
2023-05-19T23:53:22.723Z,10.72
2023-05-19T23:58:24.344Z,10.80
